sensor_id;sensor_type;location;lat;lon;timestamp;P1;durP1;ratioP1;P2;durP2;ratioP2
18997;SDS011;9632;51.018;4.284;2022-12-29T00:02:23;2.72;;;1.27;;
18997;SDS011;9632;51.018;4.284;2022-12-29T00:04:49;1.63;;;1.40;;
18997;SDS011;9632;51.018;4.284;2022-12-29T00:07:15;2.67;;;1.45;;
18997;SDS011;9632;51.018;4.284;2022-12-29T00:09:42;2.72;;;1.20;;
18997;SDS011;9632;51.018;4.284;2022-12-29T00:12:07;1.67;;;0.90;;
18997;SDS011;9632;51.018;4.284;2022-12-29T00:14:33;1.95;;;0.90;;
18997;SDS011;9632;51.018;4.284;2022-12-29T00:17:19;2.00;;;0.98;;
18997;SDS011;9632;51.018;4.284;2022-12-29T00:19:44;2.95;;;0.90;;
18997;SDS011;9632;51.018;4.284;2022-12-29T00:22:29;2.95;;;0.98;;
18997;SDS011;9632;51.018;4.284;2022-12-29T00:25:13;2.50;;;0.77;;
18997;SDS011;9632;51.018;4.284;2022-12-29T00:27:57;1.83;;;0.68;;
18997;SDS011;9632;51.018;4.284;2022-12-29T00:30:42;4.30;;;0.90;;
18997;SDS011;9632;51.018;4.284;2022-12-29T00:33:28;2.65;;;0.90;;
18997;SDS011;9632;51.018;4.284;2022-12-29T00:36:21;4.05;;;1.00;;
18997;SDS011;9632;51.018;4.284;2022-12-29T00:39:02;2.13;;;0.73;;
18997;SDS011;9632;51.018;4.284;2022-12-29T00:41:53;4.35;;;0.70;;
18997;SDS011;9632;51.018;4.284;2022-12-29T00:44:37;3.33;;;0.75;;
18997;SDS011;9632;51.018;4.284;2022-12-29T00:47:03;3.42;;;0.60;;
18997;SDS011;9632;51.018;4.284;2022-12-29T00:49:29;2.45;;;0.60;;
18997;SDS011;9632;51.018;4.284;2022-12-29T00:51:56;4.30;;;0.98;;
18997;SDS011;9632;51.018;4.284;2022-12-29T00:54:22;2.97;;;0.70;;
18997;SDS011;9632;51.018;4.284;2022-12-29T00:56:48;3.08;;;0.73;;
18997;SDS011;9632;51.018;4.284;2022-12-29T00:59:15;3.55;;;0.75;;
18997;SDS011;9632;51.018;4.284;2022-12-29T01:01:40;6.45;;;0.75;;
18997;SDS011;9632;51.018;4.284;2022-12-29T01:04:07;2.35;;;0.65;;
18997;SDS011;9632;51.018;4.284;2022-12-29T01:06:33;2.50;;;0.50;;
18997;SDS011;9632;51.018;4.284;2022-12-29T01:09:01;4.55;;;0.65;;
18997;SDS011;9632;51.018;4.284;2022-12-29T01:11:46;4.88;;;0.70;;
18997;SDS011;9632;51.018;4.284;2022-12-29T01:14:13;3.03;;;1.10;;
18997;SDS011;9632;51.018;4.284;2022-12-29T01:16:44;3.53;;;0.68;;
18997;SDS011;9632;51.018;4.284;2022-12-29T01:19:14;4.97;;;0.68;;
18997;SDS011;9632;51.018;4.284;2022-12-29T01:21:40;5.95;;;0.77;;
18997;SDS011;9632;51.018;4.284;2022-12-29T01:24:05;8.40;;;0.70;;
18997;SDS011;9632;51.018;4.284;2022-12-29T01:26:31;4.75;;;0.60;;
18997;SDS011;9632;51.018;4.284;2022-12-29T01:28:57;3.88;;;0.70;;
18997;SDS011;9632;51.018;4.284;2022-12-29T01:31:23;4.88;;;0.70;;
18997;SDS011;9632;51.018;4.284;2022-12-29T01:33:48;3.25;;;0.60;;
18997;SDS011;9632;51.018;4.284;2022-12-29T01:36:15;2.53;;;0.65;;
18997;SDS011;9632;51.018;4.284;2022-12-29T01:38:41;5.80;;;1.20;;
18997;SDS011;9632;51.018;4.284;2022-12-29T01:41:09;3.58;;;0.60;;
18997;SDS011;9632;51.018;4.284;2022-12-29T01:43:52;3.25;;;0.60;;
18997;SDS011;9632;51.018;4.284;2022-12-29T01:49:02;4.93;;;0.77;;
18997;SDS011;9632;51.018;4.284;2022-12-29T01:51:40;6.35;;;0.73;;
18997;SDS011;9632;51.018;4.284;2022-12-29T01:56:59;3.35;;;0.70;;
18997;SDS011;9632;51.018;4.284;2022-12-29T01:59:30;3.88;;;0.77;;
18997;SDS011;9632;51.018;4.284;2022-12-29T02:01:59;5.63;;;0.70;;
18997;SDS011;9632;51.018;4.284;2022-12-29T02:04:26;4.90;;;0.60;;
18997;SDS011;9632;51.018;4.284;2022-12-29T02:06:55;4.43;;;0.60;;
18997;SDS011;9632;51.018;4.284;2022-12-29T02:09:25;3.60;;;0.70;;
18997;SDS011;9632;51.018;4.284;2022-12-29T02:11:51;3.92;;;0.70;;
18997;SDS011;9632;51.018;4.284;2022-12-29T02:14:17;2.72;;;0.50;;
18997;SDS011;9632;51.018;4.284;2022-12-29T02:16:47;2.97;;;0.50;;
18997;SDS011;9632;51.018;4.284;2022-12-29T02:31:17;2.85;;;0.50;;
18997;SDS011;9632;51.018;4.284;2022-12-29T02:34:02;3.22;;;0.45;;
18997;SDS011;9632;51.018;4.284;2022-12-29T02:44:47;2.58;;;0.50;;
18997;SDS011;9632;51.018;4.284;2022-12-29T02:47:19;3.63;;;0.68;;
18997;SDS011;9632;51.018;4.284;2022-12-29T02:49:59;4.07;;;0.80;;
18997;SDS011;9632;51.018;4.284;2022-12-29T02:52:37;6.78;;;0.60;;
18997;SDS011;9632;51.018;4.284;2022-12-29T02:55:16;2.97;;;0.45;;
18997;SDS011;9632;51.018;4.284;2022-12-29T02:57:41;2.78;;;0.40;;
18997;SDS011;9632;51.018;4.284;2022-12-29T03:00:08;5.28;;;0.50;;
18997;SDS011;9632;51.018;4.284;2022-12-29T03:08:33;6.25;;;0.88;;
18997;SDS011;9632;51.018;4.284;2022-12-29T03:11:10;5.85;;;0.63;;
18997;SDS011;9632;51.018;4.284;2022-12-29T03:13:58;7.18;;;0.85;;
18997;SDS011;9632;51.018;4.284;2022-12-29T03:16:45;4.43;;;0.40;;
18997;SDS011;9632;51.018;4.284;2022-12-29T03:19:23;9.73;;;1.10;;
18997;SDS011;9632;51.018;4.284;2022-12-29T03:22:03;4.78;;;0.68;;
18997;SDS011;9632;51.018;4.284;2022-12-29T03:24:54;8.25;;;0.73;;
18997;SDS011;9632;51.018;4.284;2022-12-29T03:27:24;4.93;;;0.73;;
18997;SDS011;9632;51.018;4.284;2022-12-29T03:29:57;3.70;;;0.50;;
18997;SDS011;9632;51.018;4.284;2022-12-29T03:32:28;5.45;;;0.70;;
18997;SDS011;9632;51.018;4.284;2022-12-29T03:35:16;5.28;;;0.70;;
18997;SDS011;9632;51.018;4.284;2022-12-29T03:38:30;7.18;;;0.80;;
18997;SDS011;9632;51.018;4.284;2022-12-29T03:40:38;7.32;;;0.77;;
18997;SDS011;9632;51.018;4.284;2022-12-29T03:43:06;8.90;;;0.90;;
18997;SDS011;9632;51.018;4.284;2022-12-29T03:45:33;8.13;;;1.02;;
18997;SDS011;9632;51.018;4.284;2022-12-29T03:47:58;8.27;;;0.80;;
18997;SDS011;9632;51.018;4.284;2022-12-29T03:50:24;6.07;;;0.75;;
18997;SDS011;9632;51.018;4.284;2022-12-29T03:52:50;6.15;;;0.73;;
18997;SDS011;9632;51.018;4.284;2022-12-29T03:55:15;8.65;;;0.90;;
18997;SDS011;9632;51.018;4.284;2022-12-29T03:57:41;5.72;;;0.60;;
18997;SDS011;9632;51.018;4.284;2022-12-29T04:00:07;9.18;;;1.00;;
18997;SDS011;9632;51.018;4.284;2022-12-29T04:02:33;9.27;;;1.33;;
18997;SDS011;9632;51.018;4.284;2022-12-29T04:04:59;5.80;;;0.73;;
18997;SDS011;9632;51.018;4.284;2022-12-29T04:07:24;6.72;;;0.63;;
18997;SDS011;9632;51.018;4.284;2022-12-29T04:09:50;5.57;;;0.60;;
18997;SDS011;9632;51.018;4.284;2022-12-29T04:12:16;7.95;;;0.70;;
18997;SDS011;9632;51.018;4.284;2022-12-29T04:14:41;4.85;;;0.70;;
18997;SDS011;9632;51.018;4.284;2022-12-29T04:17:07;6.22;;;0.70;;
18997;SDS011;9632;51.018;4.284;2022-12-29T04:19:33;8.30;;;0.70;;
18997;SDS011;9632;51.018;4.284;2022-12-29T04:21:58;5.18;;;0.65;;
18997;SDS011;9632;51.018;4.284;2022-12-29T04:24:24;7.00;;;0.80;;
18997;SDS011;9632;51.018;4.284;2022-12-29T04:26:49;9.88;;;0.93;;
18997;SDS011;9632;51.018;4.284;2022-12-29T04:29:15;4.05;;;0.60;;
18997;SDS011;9632;51.018;4.284;2022-12-29T04:31:41;4.97;;;0.60;;
18997;SDS011;9632;51.018;4.284;2022-12-29T04:34:06;8.38;;;0.98;;
18997;SDS011;9632;51.018;4.284;2022-12-29T04:36:32;5.53;;;0.68;;
18997;SDS011;9632;51.018;4.284;2022-12-29T04:38:58;6.43;;;0.70;;
18997;SDS011;9632;51.018;4.284;2022-12-29T04:41:23;2.95;;;0.57;;
18997;SDS011;9632;51.018;4.284;2022-12-29T04:43:49;5.22;;;0.68;;
18997;SDS011;9632;51.018;4.284;2022-12-29T04:46:15;6.32;;;0.90;;
18997;SDS011;9632;51.018;4.284;2022-12-29T04:48:41;4.95;;;0.65;;
18997;SDS011;9632;51.018;4.284;2022-12-29T04:51:06;4.90;;;0.68;;
18997;SDS011;9632;51.018;4.284;2022-12-29T04:53:32;5.55;;;0.75;;
18997;SDS011;9632;51.018;4.284;2022-12-29T04:55:58;5.57;;;0.93;;
18997;SDS011;9632;51.018;4.284;2022-12-29T04:58:23;4.57;;;0.73;;
18997;SDS011;9632;51.018;4.284;2022-12-29T05:00:50;4.28;;;0.60;;
18997;SDS011;9632;51.018;4.284;2022-12-29T05:03:16;8.05;;;0.98;;
18997;SDS011;9632;51.018;4.284;2022-12-29T05:05:42;4.93;;;0.98;;
18997;SDS011;9632;51.018;4.284;2022-12-29T05:08:08;1.95;;;0.47;;
18997;SDS011;9632;51.018;4.284;2022-12-29T05:10:33;5.05;;;0.77;;
18997;SDS011;9632;51.018;4.284;2022-12-29T05:12:59;5.93;;;0.68;;
18997;SDS011;9632;51.018;4.284;2022-12-29T05:15:26;6.72;;;0.77;;
18997;SDS011;9632;51.018;4.284;2022-12-29T05:17:51;5.70;;;0.98;;
18997;SDS011;9632;51.018;4.284;2022-12-29T05:20:17;5.88;;;0.60;;
18997;SDS011;9632;51.018;4.284;2022-12-29T05:22:43;5.82;;;0.70;;
18997;SDS011;9632;51.018;4.284;2022-12-29T05:25:09;7.40;;;0.82;;
18997;SDS011;9632;51.018;4.284;2022-12-29T05:27:35;8.18;;;1.05;;
18997;SDS011;9632;51.018;4.284;2022-12-29T05:30:01;3.97;;;0.65;;
18997;SDS011;9632;51.018;4.284;2022-12-29T05:32:27;7.50;;;0.95;;
18997;SDS011;9632;51.018;4.284;2022-12-29T05:34:53;8.27;;;1.30;;
18997;SDS011;9632;51.018;4.284;2022-12-29T05:37:19;8.68;;;0.90;;
18997;SDS011;9632;51.018;4.284;2022-12-29T05:39:45;8.82;;;0.85;;
18997;SDS011;9632;51.018;4.284;2022-12-29T05:42:10;9.50;;;1.23;;
18997;SDS011;9632;51.018;4.284;2022-12-29T05:44:36;8.63;;;0.95;;
18997;SDS011;9632;51.018;4.284;2022-12-29T05:47:02;9.20;;;1.17;;
18997;SDS011;9632;51.018;4.284;2022-12-29T05:49:27;7.82;;;1.27;;
18997;SDS011;9632;51.018;4.284;2022-12-29T05:51:53;7.30;;;0.80;;
18997;SDS011;9632;51.018;4.284;2022-12-29T05:54:19;14.10;;;1.05;;
18997;SDS011;9632;51.018;4.284;2022-12-29T05:56:44;10.35;;;1.00;;
18997;SDS011;9632;51.018;4.284;2022-12-29T05:59:10;10.00;;;1.00;;
18997;SDS011;9632;51.018;4.284;2022-12-29T06:01:36;7.15;;;0.80;;
18997;SDS011;9632;51.018;4.284;2022-12-29T06:04:01;10.63;;;1.30;;
18997;SDS011;9632;51.018;4.284;2022-12-29T06:06:27;6.07;;;1.20;;
18997;SDS011;9632;51.018;4.284;2022-12-29T06:08:53;11.48;;;1.33;;
18997;SDS011;9632;51.018;4.284;2022-12-29T06:11:18;6.13;;;0.90;;
18997;SDS011;9632;51.018;4.284;2022-12-29T06:13:44;15.80;;;1.65;;
18997;SDS011;9632;51.018;4.284;2022-12-29T06:16:09;10.48;;;1.30;;
18997;SDS011;9632;51.018;4.284;2022-12-29T06:18:35;9.77;;;1.40;;
18997;SDS011;9632;51.018;4.284;2022-12-29T06:21:01;7.25;;;0.85;;
18997;SDS011;9632;51.018;4.284;2022-12-29T06:23:28;9.10;;;1.30;;
18997;SDS011;9632;51.018;4.284;2022-12-29T06:25:54;8.52;;;0.85;;
18997;SDS011;9632;51.018;4.284;2022-12-29T06:28:20;10.70;;;1.40;;
18997;SDS011;9632;51.018;4.284;2022-12-29T06:30:46;12.98;;;1.40;;
18997;SDS011;9632;51.018;4.284;2022-12-29T06:33:12;9.18;;;1.02;;
18997;SDS011;9632;51.018;4.284;2022-12-29T06:35:38;13.93;;;1.65;;
18997;SDS011;9632;51.018;4.284;2022-12-29T06:38:04;10.07;;;1.20;;
18997;SDS011;9632;51.018;4.284;2022-12-29T06:40:30;12.38;;;1.70;;
18997;SDS011;9632;51.018;4.284;2022-12-29T06:42:56;9.68;;;1.30;;
18997;SDS011;9632;51.018;4.284;2022-12-29T06:45:22;10.35;;;1.25;;
18997;SDS011;9632;51.018;4.284;2022-12-29T06:47:47;7.80;;;1.25;;
18997;SDS011;9632;51.018;4.284;2022-12-29T06:50:13;8.75;;;1.38;;
18997;SDS011;9632;51.018;4.284;2022-12-29T06:52:39;13.20;;;1.63;;
18997;SDS011;9632;51.018;4.284;2022-12-29T06:55:05;11.38;;;1.40;;
18997;SDS011;9632;51.018;4.284;2022-12-29T06:57:30;10.57;;;1.65;;
18997;SDS011;9632;51.018;4.284;2022-12-29T06:59:56;12.15;;;1.40;;
18997;SDS011;9632;51.018;4.284;2022-12-29T07:02:22;14.30;;;1.35;;
18997;SDS011;9632;51.018;4.284;2022-12-29T07:04:50;10.15;;;1.33;;
18997;SDS011;9632;51.018;4.284;2022-12-29T07:07:19;11.98;;;1.38;;
18997;SDS011;9632;51.018;4.284;2022-12-29T07:09:45;16.20;;;2.13;;
18997;SDS011;9632;51.018;4.284;2022-12-29T07:12:11;11.70;;;1.38;;
18997;SDS011;9632;51.018;4.284;2022-12-29T07:14:37;13.18;;;1.50;;
18997;SDS011;9632;51.018;4.284;2022-12-29T07:17:02;11.07;;;1.20;;
18997;SDS011;9632;51.018;4.284;2022-12-29T07:19:31;13.90;;;1.70;;
18997;SDS011;9632;51.018;4.284;2022-12-29T07:21:58;10.98;;;1.30;;
18997;SDS011;9632;51.018;4.284;2022-12-29T07:24:24;14.40;;;3.95;;
18997;SDS011;9632;51.018;4.284;2022-12-29T07:26:53;10.75;;;1.92;;
18997;SDS011;9632;51.018;4.284;2022-12-29T07:29:18;10.13;;;1.33;;
18997;SDS011;9632;51.018;4.284;2022-12-29T07:31:44;13.20;;;1.60;;
18997;SDS011;9632;51.018;4.284;2022-12-29T07:34:12;11.93;;;1.45;;
18997;SDS011;9632;51.018;4.284;2022-12-29T07:36:38;12.98;;;1.50;;
18997;SDS011;9632;51.018;4.284;2022-12-29T07:39:03;12.52;;;1.58;;
18997;SDS011;9632;51.018;4.284;2022-12-29T07:41:29;11.73;;;1.45;;
18997;SDS011;9632;51.018;4.284;2022-12-29T07:43:55;9.85;;;1.38;;
18997;SDS011;9632;51.018;4.284;2022-12-29T07:46:20;21.58;;;2.08;;
18997;SDS011;9632;51.018;4.284;2022-12-29T07:48:46;8.80;;;1.48;;
18997;SDS011;9632;51.018;4.284;2022-12-29T07:51:12;10.93;;;1.80;;
18997;SDS011;9632;51.018;4.284;2022-12-29T07:53:37;11.30;;;1.50;;
18997;SDS011;9632;51.018;4.284;2022-12-29T07:56:03;11.50;;;1.25;;
18997;SDS011;9632;51.018;4.284;2022-12-29T07:58:29;12.60;;;1.80;;
18997;SDS011;9632;51.018;4.284;2022-12-29T08:00:55;15.52;;;2.03;;
18997;SDS011;9632;51.018;4.284;2022-12-29T08:03:21;11.90;;;1.73;;
18997;SDS011;9632;51.018;4.284;2022-12-29T08:05:47;9.38;;;1.40;;
18997;SDS011;9632;51.018;4.284;2022-12-29T08:08:13;10.30;;;1.33;;
18997;SDS011;9632;51.018;4.284;2022-12-29T08:10:39;12.88;;;2.13;;
18997;SDS011;9632;51.018;4.284;2022-12-29T08:13:05;11.25;;;1.50;;
18997;SDS011;9632;51.018;4.284;2022-12-29T08:15:30;10.48;;;1.30;;
18997;SDS011;9632;51.018;4.284;2022-12-29T08:17:56;12.93;;;1.50;;
18997;SDS011;9632;51.018;4.284;2022-12-29T08:20:22;14.32;;;1.30;;
18997;SDS011;9632;51.018;4.284;2022-12-29T08:22:47;11.13;;;1.30;;
18997;SDS011;9632;51.018;4.284;2022-12-29T08:25:13;12.98;;;1.30;;
18997;SDS011;9632;51.018;4.284;2022-12-29T08:27:39;15.48;;;1.92;;
18997;SDS011;9632;51.018;4.284;2022-12-29T08:30:05;16.55;;;1.60;;
18997;SDS011;9632;51.018;4.284;2022-12-29T08:32:31;17.75;;;1.73;;
18997;SDS011;9632;51.018;4.284;2022-12-29T08:34:57;12.00;;;1.48;;
18997;SDS011;9632;51.018;4.284;2022-12-29T08:37:22;17.65;;;2.30;;
18997;SDS011;9632;51.018;4.284;2022-12-29T08:39:48;15.45;;;2.47;;
18997;SDS011;9632;51.018;4.284;2022-12-29T08:42:15;10.65;;;1.52;;
18997;SDS011;9632;51.018;4.284;2022-12-29T08:44:40;13.02;;;1.38;;
18997;SDS011;9632;51.018;4.284;2022-12-29T08:47:06;11.30;;;1.75;;
18997;SDS011;9632;51.018;4.284;2022-12-29T08:49:33;14.05;;;1.58;;
18997;SDS011;9632;51.018;4.284;2022-12-29T08:51:58;10.45;;;1.30;;
18997;SDS011;9632;51.018;4.284;2022-12-29T08:54:24;13.15;;;1.65;;
18997;SDS011;9632;51.018;4.284;2022-12-29T08:56:50;16.80;;;1.67;;
18997;SDS011;9632;51.018;4.284;2022-12-29T08:59:15;15.40;;;1.52;;
18997;SDS011;9632;51.018;4.284;2022-12-29T09:01:41;11.68;;;1.73;;
18997;SDS011;9632;51.018;4.284;2022-12-29T09:04:07;19.55;;;2.03;;
18997;SDS011;9632;51.018;4.284;2022-12-29T09:06:33;12.80;;;1.80;;
18997;SDS011;9632;51.018;4.284;2022-12-29T09:08:59;19.33;;;2.10;;
18997;SDS011;9632;51.018;4.284;2022-12-29T09:11:26;15.98;;;2.80;;
18997;SDS011;9632;51.018;4.284;2022-12-29T09:13:52;15.00;;;1.67;;
18997;SDS011;9632;51.018;4.284;2022-12-29T09:16:19;12.48;;;1.60;;
18997;SDS011;9632;51.018;4.284;2022-12-29T09:18:47;15.20;;;1.77;;
18997;SDS011;9632;51.018;4.284;2022-12-29T09:21:13;19.38;;;2.42;;
18997;SDS011;9632;51.018;4.284;2022-12-29T09:23:39;14.27;;;1.80;;
18997;SDS011;9632;51.018;4.284;2022-12-29T09:26:06;18.23;;;1.95;;
18997;SDS011;9632;51.018;4.284;2022-12-29T09:28:32;15.20;;;1.48;;
18997;SDS011;9632;51.018;4.284;2022-12-29T09:30:59;14.93;;;1.63;;
18997;SDS011;9632;51.018;4.284;2022-12-29T09:33:25;15.50;;;2.08;;
18997;SDS011;9632;51.018;4.284;2022-12-29T09:35:54;17.00;;;1.98;;
18997;SDS011;9632;51.018;4.284;2022-12-29T09:38:21;19.05;;;2.50;;
18997;SDS011;9632;51.018;4.284;2022-12-29T09:40:53;15.00;;;2.33;;
18997;SDS011;9632;51.018;4.284;2022-12-29T09:45:55;17.38;;;1.90;;
18997;SDS011;9632;51.018;4.284;2022-12-29T09:48:30;20.95;;;1.75;;
18997;SDS011;9632;51.018;4.284;2022-12-29T09:51:01;20.10;;;2.35;;
18997;SDS011;9632;51.018;4.284;2022-12-29T09:56:21;15.45;;;1.88;;
18997;SDS011;9632;51.018;4.284;2022-12-29T09:59:00;16.17;;;2.03;;
18997;SDS011;9632;51.018;4.284;2022-12-29T10:01:41;17.45;;;1.88;;
18997;SDS011;9632;51.018;4.284;2022-12-29T10:04:08;15.98;;;1.80;;
18997;SDS011;9632;51.018;4.284;2022-12-29T10:23:51;15.65;;;2.03;;
18997;SDS011;9632;51.018;4.284;2022-12-29T10:26:19;19.60;;;2.13;;
18997;SDS011;9632;51.018;4.284;2022-12-29T10:28:49;19.02;;;2.17;;
18997;SDS011;9632;51.018;4.284;2022-12-29T10:31:21;16.52;;;2.10;;
18997;SDS011;9632;51.018;4.284;2022-12-29T10:33:50;12.80;;;1.75;;
18997;SDS011;9632;51.018;4.284;2022-12-29T10:36:26;14.45;;;2.17;;
18997;SDS011;9632;51.018;4.284;2022-12-29T10:39:07;16.17;;;2.00;;
18997;SDS011;9632;51.018;4.284;2022-12-29T10:42:09;15.68;;;1.85;;
18997;SDS011;9632;51.018;4.284;2022-12-29T10:44:40;14.20;;;2.00;;
18997;SDS011;9632;51.018;4.284;2022-12-29T10:47:11;14.23;;;1.70;;
18997;SDS011;9632;51.018;4.284;2022-12-29T10:49:40;13.43;;;1.75;;
18997;SDS011;9632;51.018;4.284;2022-12-29T10:52:08;16.48;;;1.88;;
18997;SDS011;9632;51.018;4.284;2022-12-29T10:54:38;12.75;;;1.80;;
18997;SDS011;9632;51.018;4.284;2022-12-29T10:57:22;18.38;;;1.95;;
18997;SDS011;9632;51.018;4.284;2022-12-29T11:00:01;14.57;;;2.00;;
18997;SDS011;9632;51.018;4.284;2022-12-29T11:02:43;20.90;;;2.67;;
18997;SDS011;9632;51.018;4.284;2022-12-29T11:08:03;12.57;;;1.63;;
18997;SDS011;9632;51.018;4.284;2022-12-29T11:10:43;20.52;;;2.47;;
18997;SDS011;9632;51.018;4.284;2022-12-29T11:13:14;11.93;;;1.77;;
18997;SDS011;9632;51.018;4.284;2022-12-29T11:15:49;15.27;;;2.00;;
18997;SDS011;9632;51.018;4.284;2022-12-29T11:18:26;11.50;;;1.60;;
18997;SDS011;9632;51.018;4.284;2022-12-29T11:20:58;16.83;;;2.00;;
18997;SDS011;9632;51.018;4.284;2022-12-29T11:23:39;13.63;;;1.70;;
18997;SDS011;9632;51.018;4.284;2022-12-29T11:26:13;15.25;;;2.63;;
18997;SDS011;9632;51.018;4.284;2022-12-29T11:28:43;11.48;;;1.75;;
18997;SDS011;9632;51.018;4.284;2022-12-29T11:31:10;14.35;;;1.63;;
18997;SDS011;9632;51.018;4.284;2022-12-29T11:33:41;13.60;;;1.67;;
18997;SDS011;9632;51.018;4.284;2022-12-29T11:36:11;14.40;;;2.03;;
18997;SDS011;9632;51.018;4.284;2022-12-29T11:38:39;14.98;;;1.88;;
18997;SDS011;9632;51.018;4.284;2022-12-29T11:41:06;21.95;;;2.25;;
18997;SDS011;9632;51.018;4.284;2022-12-29T11:43:38;11.25;;;1.60;;
18997;SDS011;9632;51.018;4.284;2022-12-29T11:46:07;15.35;;;2.00;;
18997;SDS011;9632;51.018;4.284;2022-12-29T11:48:41;14.50;;;2.33;;
18997;SDS011;9632;51.018;4.284;2022-12-29T11:51:08;17.90;;;1.92;;
18997;SDS011;9632;51.018;4.284;2022-12-29T11:56:08;15.05;;;1.73;;
18997;SDS011;9632;51.018;4.284;2022-12-29T11:58:37;9.80;;;1.80;;
18997;SDS011;9632;51.018;4.284;2022-12-29T12:01:05;13.65;;;2.17;;
18997;SDS011;9632;51.018;4.284;2022-12-29T12:04:02;14.35;;;1.63;;
18997;SDS011;9632;51.018;4.284;2022-12-29T12:09:40;13.10;;;1.80;;
18997;SDS011;9632;51.018;4.284;2022-12-29T12:15:01;16.25;;;2.30;;
18997;SDS011;9632;51.018;4.284;2022-12-29T12:17:40;12.65;;;2.03;;
18997;SDS011;9632;51.018;4.284;2022-12-29T12:23:10;16.50;;;2.33;;
18997;SDS011;9632;51.018;4.284;2022-12-29T12:25:50;16.25;;;2.55;;
18997;SDS011;9632;51.018;4.284;2022-12-29T12:28:45;19.30;;;3.00;;
18997;SDS011;9632;51.018;4.284;2022-12-29T12:31:18;20.35;;;3.13;;
18997;SDS011;9632;51.018;4.284;2022-12-29T12:33:55;16.60;;;1.98;;
18997;SDS011;9632;51.018;4.284;2022-12-29T12:39:05;14.35;;;1.90;;
18997;SDS011;9632;51.018;4.284;2022-12-29T12:47:37;14.13;;;2.15;;
18997;SDS011;9632;51.018;4.284;2022-12-29T12:56:27;16.48;;;2.33;;
18997;SDS011;9632;51.018;4.284;2022-12-29T13:01:47;12.63;;;1.90;;
18997;SDS011;9632;51.018;4.284;2022-12-29T13:04:28;9.30;;;1.35;;
18997;SDS011;9632;51.018;4.284;2022-12-29T13:18:32;12.65;;;2.25;;
18997;SDS011;9632;51.018;4.284;2022-12-29T13:21:17;9.05;;;1.52;;
18997;SDS011;9632;51.018;4.284;2022-12-29T13:25:06;16.10;;;2.00;;
18997;SDS011;9632;51.018;4.284;2022-12-29T13:30:12;9.60;;;1.45;;
18997;SDS011;9632;51.018;4.284;2022-12-29T13:41:03;14.55;;;3.25;;
18997;SDS011;9632;51.018;4.284;2022-12-29T13:43:34;11.20;;;1.60;;
18997;SDS011;9632;51.018;4.284;2022-12-29T13:46:06;16.95;;;2.35;;
18997;SDS011;9632;51.018;4.284;2022-12-29T13:48:43;9.02;;;1.08;;
18997;SDS011;9632;51.018;4.284;2022-12-29T13:51:36;13.80;;;1.77;;
18997;SDS011;9632;51.018;4.284;2022-12-29T13:57:17;10.25;;;1.40;;
18997;SDS011;9632;51.018;4.284;2022-12-29T14:05:31;8.82;;;1.33;;
18997;SDS011;9632;51.018;4.284;2022-12-29T14:07:59;12.50;;;1.52;;
18997;SDS011;9632;51.018;4.284;2022-12-29T14:10:34;9.63;;;1.10;;
18997;SDS011;9632;51.018;4.284;2022-12-29T14:15:42;6.55;;;0.85;;
18997;SDS011;9632;51.018;4.284;2022-12-29T14:20:46;2.28;;;0.43;;
18997;SDS011;9632;51.018;4.284;2022-12-29T14:23:17;6.70;;;0.40;;
18997;SDS011;9632;51.018;4.284;2022-12-29T14:28:34;2.42;;;0.50;;
18997;SDS011;9632;51.018;4.284;2022-12-29T14:31:01;4.63;;;0.60;;
18997;SDS011;9632;51.018;4.284;2022-12-29T14:33:29;7.35;;;0.70;;
18997;SDS011;9632;51.018;4.284;2022-12-29T14:35:57;5.25;;;0.68;;
18997;SDS011;9632;51.018;4.284;2022-12-29T14:39:01;4.65;;;0.90;;
18997;SDS011;9632;51.018;4.284;2022-12-29T14:41:32;6.28;;;0.73;;
18997;SDS011;9632;51.018;4.284;2022-12-29T14:46:43;8.85;;;2.25;;
18997;SDS011;9632;51.018;4.284;2022-12-29T14:49:19;5.80;;;0.75;;
18997;SDS011;9632;51.018;4.284;2022-12-29T14:51:47;5.93;;;0.55;;
18997;SDS011;9632;51.018;4.284;2022-12-29T14:57:01;5.85;;;0.65;;
18997;SDS011;9632;51.018;4.284;2022-12-29T14:59:29;6.75;;;1.35;;
18997;SDS011;9632;51.018;4.284;2022-12-29T15:01:57;6.95;;;0.90;;
18997;SDS011;9632;51.018;4.284;2022-12-29T15:04:32;6.20;;;1.00;;
18997;SDS011;9632;51.018;4.284;2022-12-29T15:07:00;8.30;;;1.20;;
18997;SDS011;9632;51.018;4.284;2022-12-29T15:12:39;6.78;;;1.38;;
18997;SDS011;9632;51.018;4.284;2022-12-29T15:15:17;7.90;;;1.15;;
18997;SDS011;9632;51.018;4.284;2022-12-29T15:17:45;10.88;;;1.13;;
18997;SDS011;9632;51.018;4.284;2022-12-29T15:20:30;11.73;;;1.25;;
18997;SDS011;9632;51.018;4.284;2022-12-29T15:23:03;8.40;;;1.10;;
18997;SDS011;9632;51.018;4.284;2022-12-29T15:25:35;16.85;;;1.70;;
18997;SDS011;9632;51.018;4.284;2022-12-29T15:28:05;11.55;;;1.27;;
18997;SDS011;9632;51.018;4.284;2022-12-29T15:30:32;16.75;;;1.85;;
18997;SDS011;9632;51.018;4.284;2022-12-29T15:32:58;14.68;;;1.60;;
18997;SDS011;9632;51.018;4.284;2022-12-29T15:35:34;11.73;;;1.80;;
18997;SDS011;9632;51.018;4.284;2022-12-29T15:41:02;12.23;;;1.58;;
18997;SDS011;9632;51.018;4.284;2022-12-29T15:46:22;15.57;;;1.45;;
18997;SDS011;9632;51.018;4.284;2022-12-29T15:48:48;10.85;;;1.17;;
18997;SDS011;9632;51.018;4.284;2022-12-29T15:51:20;10.32;;;1.60;;
18997;SDS011;9632;51.018;4.284;2022-12-29T15:53:58;13.25;;;2.05;;
18997;SDS011;9632;51.018;4.284;2022-12-29T15:56:24;10.02;;;1.38;;
18997;SDS011;9632;51.018;4.284;2022-12-29T15:58:54;10.38;;;1.80;;
18997;SDS011;9632;51.018;4.284;2022-12-29T16:03:59;10.50;;;1.55;;
18997;SDS011;9632;51.018;4.284;2022-12-29T16:08:57;8.38;;;1.27;;
18997;SDS011;9632;51.018;4.284;2022-12-29T16:14:01;12.65;;;1.50;;
18997;SDS011;9632;51.018;4.284;2022-12-29T16:16:33;9.10;;;1.20;;
18997;SDS011;9632;51.018;4.284;2022-12-29T16:19:03;12.13;;;1.85;;
18997;SDS011;9632;51.018;4.284;2022-12-29T16:21:40;8.00;;;1.42;;
18997;SDS011;9632;51.018;4.284;2022-12-29T16:24:08;10.68;;;1.77;;
18997;SDS011;9632;51.018;4.284;2022-12-29T16:26:39;8.90;;;1.52;;
18997;SDS011;9632;51.018;4.284;2022-12-29T16:29:22;14.05;;;1.80;;
18997;SDS011;9632;51.018;4.284;2022-12-29T16:34:26;10.70;;;1.75;;
18997;SDS011;9632;51.018;4.284;2022-12-29T16:37:00;14.10;;;1.73;;
18997;SDS011;9632;51.018;4.284;2022-12-29T16:39:44;13.95;;;3.40;;
18997;SDS011;9632;51.018;4.284;2022-12-29T16:50:44;15.23;;;2.55;;
18997;SDS011;9632;51.018;4.284;2022-12-29T16:53:27;14.80;;;1.90;;
18997;SDS011;9632;51.018;4.284;2022-12-29T16:55:57;18.13;;;2.47;;
18997;SDS011;9632;51.018;4.284;2022-12-29T16:58:38;18.27;;;2.45;;
18997;SDS011;9632;51.018;4.284;2022-12-29T17:01:04;19.42;;;2.00;;
18997;SDS011;9632;51.018;4.284;2022-12-29T17:03:38;14.65;;;1.98;;
18997;SDS011;9632;51.018;4.284;2022-12-29T17:06:09;20.00;;;2.30;;
18997;SDS011;9632;51.018;4.284;2022-12-29T17:08:43;14.73;;;1.77;;
18997;SDS011;9632;51.018;4.284;2022-12-29T17:11:18;13.68;;;2.33;;
18997;SDS011;9632;51.018;4.284;2022-12-29T17:16:42;16.73;;;2.80;;
18997;SDS011;9632;51.018;4.284;2022-12-29T17:19:10;18.75;;;2.28;;
18997;SDS011;9632;51.018;4.284;2022-12-29T17:21:51;23.25;;;2.53;;
18997;SDS011;9632;51.018;4.284;2022-12-29T17:24:17;16.50;;;3.08;;
18997;SDS011;9632;51.018;4.284;2022-12-29T17:27:05;16.75;;;3.13;;
18997;SDS011;9632;51.018;4.284;2022-12-29T17:29:37;17.35;;;3.15;;
18997;SDS011;9632;51.018;4.284;2022-12-29T17:32:05;15.35;;;2.78;;
18997;SDS011;9632;51.018;4.284;2022-12-29T17:34:34;19.05;;;3.05;;
18997;SDS011;9632;51.018;4.284;2022-12-29T17:37:00;19.55;;;2.92;;
18997;SDS011;9632;51.018;4.284;2022-12-29T17:39:25;21.85;;;3.10;;
18997;SDS011;9632;51.018;4.284;2022-12-29T17:41:51;15.75;;;2.90;;
18997;SDS011;9632;51.018;4.284;2022-12-29T17:44:18;23.40;;;2.92;;
18997;SDS011;9632;51.018;4.284;2022-12-29T17:46:45;18.55;;;3.35;;
18997;SDS011;9632;51.018;4.284;2022-12-29T17:49:13;20.15;;;2.92;;
18997;SDS011;9632;51.018;4.284;2022-12-29T17:51:43;21.88;;;2.97;;
18997;SDS011;9632;51.018;4.284;2022-12-29T17:54:20;21.80;;;3.10;;
18997;SDS011;9632;51.018;4.284;2022-12-29T17:56:48;21.50;;;4.47;;